createdAt,value
2018-06-28T00:00:10.110Z,20.25
2018-06-28T00:02:38.236Z,20.50
2018-06-28T00:05:06.323Z,20.80
2018-06-28T00:07:34.347Z,21.20
2018-06-28T00:10:02.263Z,21.65
2018-06-28T00:12:30.415Z,22.55
2018-06-28T00:14:58.488Z,21.30
2018-06-28T00:17:26.484Z,21.65
2018-06-28T00:19:54.516Z,21.55
2018-06-28T00:22:22.524Z,23.30
2018-06-28T00:24:50.658Z,23.83
2018-06-28T00:27:18.722Z,26.50
2018-06-28T00:29:46.832Z,22.17
2018-06-28T00:32:14.817Z,21.35
2018-06-28T00:34:42.916Z,21.42
2018-06-28T00:37:11.067Z,26.73
2018-06-28T00:39:39.100Z,29.15
2018-06-28T00:42:07.208Z,32.10
2018-06-28T00:44:35.289Z,33.50
2018-06-28T00:47:03.349Z,30.70
2018-06-28T00:49:31.375Z,28.65
2018-06-28T00:51:59.546Z,35.70
2018-06-28T00:54:27.543Z,32.08
2018-06-28T00:56:55.688Z,31.77
2018-06-28T00:59:23.827Z,25.20
2018-06-28T01:01:52.119Z,23.83
2018-06-28T01:04:20.202Z,17.92
2018-06-28T01:06:48.276Z,19.67
2018-06-28T01:09:16.241Z,20.82
2018-06-28T01:11:44.305Z,17.82
2018-06-28T01:14:13.315Z,20.15
2018-06-28T01:16:41.355Z,20.57
2018-06-28T01:19:09.509Z,22.35
2018-06-28T01:21:37.627Z,18.23
2018-06-28T01:24:05.729Z,19.20
2018-06-28T01:26:33.981Z,23.87
2018-06-28T01:29:02.058Z,22.35
2018-06-28T01:31:30.232Z,21.62
2018-06-28T01:33:58.208Z,20.30
2018-06-28T01:36:26.178Z,23.02
2018-06-28T01:38:54.379Z,21.97
2018-06-28T01:41:22.444Z,23.22
2018-06-28T01:43:50.520Z,23.52
2018-06-28T01:46:18.962Z,21.62
2018-06-28T01:48:47.196Z,22.77
2018-06-28T01:51:15.274Z,21.17
2018-06-28T01:53:43.340Z,19.87
2018-06-28T01:56:11.389Z,26.48
2018-06-28T01:58:39.534Z,24.75
2018-06-28T02:01:07.792Z,20.75
2018-06-28T02:03:36.136Z,21.93
2018-06-28T02:06:04.142Z,21.55
2018-06-28T02:08:32.118Z,21.02
2018-06-28T02:11:00.157Z,21.62
2018-06-28T02:13:28.149Z,20.35
2018-06-28T02:15:57.304Z,21.93
2018-06-28T02:18:25.376Z,24.67
2018-06-28T02:20:53.325Z,22.70
2018-06-28T02:23:22.225Z,26.37
2018-06-28T02:25:50.199Z,23.65
2018-06-28T02:28:18.137Z,22.22
2018-06-28T02:30:46.139Z,21.65
2018-06-28T02:33:14.101Z,20.08
2018-06-28T02:35:42.523Z,25.65
2018-06-28T02:38:10.652Z,27.60
2018-06-28T02:40:38.581Z,23.10
2018-06-28T02:43:06.550Z,24.80
2018-06-28T02:45:34.459Z,22.60
2018-06-28T02:48:02.588Z,23.35
2018-06-28T02:50:30.544Z,17.92
2018-06-28T02:52:58.580Z,17.27
2018-06-28T02:55:26.520Z,18.80
2018-06-28T02:57:54.556Z,21.10
2018-06-28T03:00:22.554Z,20.30
2018-06-28T03:02:50.525Z,25.27
2018-06-28T03:05:19.060Z,24.67
2018-06-28T03:07:47.777Z,23.30
2018-06-28T03:10:15.860Z,26.45
2018-06-28T03:12:43.821Z,20.72
2018-06-28T03:15:11.820Z,23.52
2018-06-28T03:17:40.287Z,25.02
2018-06-28T03:20:08.245Z,25.97
2018-06-28T03:22:36.240Z,21.07
2018-06-28T03:25:04.218Z,19.52
2018-06-28T03:27:32.188Z,21.07
2018-06-28T03:30:00.238Z,20.05
2018-06-28T03:32:28.212Z,21.12
2018-06-28T03:34:56.199Z,18.02
2018-06-28T03:37:24.200Z,15.98
2018-06-28T03:39:52.320Z,14.23
2018-06-28T03:42:25.285Z,16.75
2018-06-28T03:44:53.279Z,10.85
2018-06-28T03:47:21.291Z,11.55
2018-06-28T03:49:49.241Z,12.10
2018-06-28T03:52:17.231Z,12.07
2018-06-28T03:54:45.117Z,10.55
2018-06-28T03:57:13.429Z,9.13
2018-06-28T03:59:41.423Z,15.30
2018-06-28T04:02:09.438Z,12.05
2018-06-28T04:04:37.449Z,13.53
2018-06-28T04:07:05.474Z,11.38
2018-06-28T04:09:33.576Z,10.90
2018-06-28T04:12:01.562Z,10.98
2018-06-28T04:14:29.539Z,11.48
2018-06-28T04:16:57.485Z,7.45
2018-06-28T04:19:25.491Z,8.83
2018-06-28T04:21:53.485Z,9.43
2018-06-28T04:24:21.418Z,7.55
2018-06-28T04:26:50.422Z,6.97
2018-06-28T04:29:18.468Z,8.58
2018-06-28T04:31:46.507Z,7.08
2018-06-28T04:34:14.454Z,5.28
2018-06-28T04:36:42.506Z,6.65
2018-06-28T04:39:12.612Z,7.75
2018-06-28T04:41:40.616Z,8.70
2018-06-28T04:44:08.700Z,7.83
2018-06-28T04:46:36.658Z,8.68
2018-06-28T04:49:04.627Z,6.83
2018-06-28T04:51:32.578Z,6.28
2018-06-28T04:54:00.546Z,6.50
2018-06-28T04:56:28.459Z,8.03
2018-06-28T04:58:56.424Z,10.63
2018-06-28T05:01:24.503Z,9.18
2018-06-28T05:03:52.621Z,6.80
2018-06-28T05:06:21.017Z,7.05
2018-06-28T05:08:49.167Z,7.90
2018-06-28T05:11:17.054Z,5.70
2018-06-28T05:13:45.028Z,5.17
2018-06-28T05:16:13.066Z,5.90
2018-06-28T05:18:41.166Z,6.22
2018-06-28T05:21:09.112Z,6.25
2018-06-28T05:23:37.306Z,7.25
2018-06-28T05:26:05.488Z,5.92
2018-06-28T05:28:33.481Z,4.85
2018-06-28T05:31:01.445Z,7.22
2018-06-28T05:33:29.445Z,7.22
2018-06-28T05:35:58.021Z,4.40
2018-06-28T05:38:26.003Z,6.45
2018-06-28T05:40:54.019Z,5.53
2018-06-28T05:43:22.038Z,7.83
2018-06-28T05:45:50.114Z,6.47
2018-06-28T05:48:18.138Z,7.58
2018-06-28T05:50:46.164Z,6.47
2018-06-28T05:53:14.184Z,6.33
2018-06-28T05:55:42.363Z,5.37
2018-06-28T05:58:10.542Z,8.78
2018-06-28T06:00:38.612Z,9.45
2018-06-28T06:03:06.699Z,20.55
2018-06-28T06:05:34.679Z,12.53
2018-06-28T06:08:03.275Z,18.23
2018-06-28T06:10:31.294Z,13.95
2018-06-28T06:13:00.682Z,12.70
2018-06-28T06:15:28.675Z,14.83
2018-06-28T06:17:56.780Z,10.55
2018-06-28T06:20:25.074Z,8.35
2018-06-28T06:22:53.514Z,9.50
2018-06-28T06:25:21.591Z,8.83
2018-06-28T06:27:49.583Z,9.60
2018-06-28T06:30:17.524Z,8.95
2018-06-28T06:32:45.576Z,11.00
2018-06-28T06:35:14.603Z,8.35
2018-06-28T06:37:42.720Z,6.33
2018-06-28T06:40:10.740Z,8.28
2018-06-28T06:42:38.745Z,9.00
2018-06-28T06:45:07.684Z,9.68
2018-06-28T06:47:35.659Z,10.70
2018-06-28T06:50:03.776Z,8.45
2018-06-28T06:52:31.824Z,7.58
2018-06-28T06:54:59.984Z,9.58
2018-06-28T06:57:27.989Z,9.55
2018-06-28T06:59:56.167Z,5.15
2018-06-28T07:02:24.330Z,5.17
2018-06-28T07:04:52.360Z,6.62
2018-06-28T07:07:20.357Z,5.05
2018-06-28T07:09:48.409Z,5.33
2018-06-28T07:12:16.613Z,6.37
2018-06-28T07:14:44.578Z,7.72
2018-06-28T07:17:12.669Z,6.17
2018-06-28T07:19:40.651Z,7.08
2018-06-28T07:22:08.746Z,7.22
2018-06-28T07:24:36.786Z,6.22
2018-06-28T07:27:05.060Z,7.45
2018-06-28T07:29:33.062Z,5.92
2018-06-28T07:32:02.190Z,6.17
2018-06-28T07:34:30.325Z,8.25
2018-06-28T07:36:58.312Z,8.68
2018-06-28T07:39:28.024Z,7.78
2018-06-28T07:41:56.048Z,6.87
2018-06-28T07:44:24.006Z,8.40
2018-06-28T07:46:52.533Z,7.37
2018-06-28T07:49:20.710Z,7.65
2018-06-28T07:51:48.651Z,5.53
2018-06-28T07:54:17.703Z,7.65
2018-06-28T07:56:45.905Z,6.75
2018-06-28T07:59:13.836Z,6.80
2018-06-28T08:01:41.846Z,7.15
2018-06-28T08:04:09.906Z,8.08
2018-06-28T08:06:38.147Z,6.75
2018-06-28T08:09:07.352Z,8.68
2018-06-28T08:11:35.353Z,9.30
2018-06-28T08:14:03.420Z,7.80
2018-06-28T08:16:34.768Z,5.62
2018-06-28T08:19:02.692Z,9.58
2018-06-28T08:21:30.774Z,6.58
2018-06-28T08:23:58.778Z,9.33
2018-06-28T08:26:26.823Z,11.08
2018-06-28T08:28:54.811Z,7.15
2018-06-28T08:31:22.898Z,7.20
2018-06-28T08:33:51.252Z,7.22
2018-06-28T08:36:20.279Z,6.00
2018-06-28T08:38:48.217Z,7.83
2018-06-28T08:41:16.453Z,6.45
2018-06-28T08:43:45.409Z,5.83
2018-06-28T08:46:13.443Z,7.95
2018-06-28T08:48:41.479Z,4.58
2018-06-28T08:51:09.446Z,6.47
2018-06-28T08:53:37.404Z,9.80
2018-06-28T08:56:05.540Z,5.25
2018-06-28T08:58:33.931Z,7.28
2018-06-28T09:01:01.896Z,6.70
2018-06-28T09:03:29.933Z,8.68
2018-06-28T09:05:58.528Z,5.33
2018-06-28T09:08:26.653Z,5.62
2018-06-28T09:10:54.715Z,7.28
2018-06-28T09:13:22.810Z,8.63
2018-06-28T09:15:51.142Z,8.48
2018-06-28T09:18:19.152Z,5.10
2018-06-28T09:20:47.179Z,6.78
2018-06-28T09:23:15.365Z,6.25
2018-06-28T09:25:43.843Z,8.55
2018-06-28T09:28:12.266Z,5.12
2018-06-28T09:30:40.270Z,8.50
2018-06-28T09:33:08.359Z,8.78
2018-06-28T09:35:36.307Z,7.83
2018-06-28T09:38:04.263Z,10.72
2018-06-28T09:40:32.359Z,7.78
2018-06-28T09:43:00.708Z,8.30
2018-06-28T09:45:28.977Z,9.68
2018-06-28T09:47:57.172Z,6.97
2018-06-28T09:50:25.211Z,6.50
2018-06-28T09:52:53.476Z,8.58
2018-06-28T09:55:21.800Z,10.68
2018-06-28T09:57:50.076Z,9.28
2018-06-28T10:00:22.530Z,6.45
2018-06-28T10:02:50.608Z,8.13
2018-06-28T10:05:18.600Z,8.30
2018-06-28T10:07:55.419Z,12.03
2018-06-28T10:10:23.454Z,16.00
2018-06-28T10:12:51.501Z,14.25
2018-06-28T10:15:19.501Z,12.23
2018-06-28T10:17:47.482Z,12.00
2018-06-28T10:20:15.530Z,10.82
2018-06-28T10:22:43.719Z,12.70
2018-06-28T10:25:11.673Z,12.55
2018-06-28T10:27:39.649Z,16.42
2018-06-28T10:30:07.695Z,15.50
2018-06-28T10:32:36.119Z,15.72
2018-06-28T10:35:04.168Z,17.37
2018-06-28T10:37:32.707Z,15.03
2018-06-28T10:40:00.843Z,17.45
2018-06-28T10:42:29.068Z,16.37
2018-06-28T10:44:57.098Z,14.55
2018-06-28T10:47:25.191Z,15.13
2018-06-28T10:49:53.186Z,14.58
2018-06-28T10:52:21.258Z,16.95
2018-06-28T10:54:49.185Z,16.95
2018-06-28T10:57:17.224Z,18.27
2018-06-28T10:59:45.179Z,16.30
2018-06-28T11:02:13.172Z,17.50
2018-06-28T11:04:41.116Z,18.92
2018-06-28T11:07:09.047Z,15.30
2018-06-28T11:09:38.265Z,18.45
2018-06-28T11:12:06.365Z,15.00
2018-06-28T11:14:34.690Z,13.22
2018-06-28T11:17:02.653Z,13.93
2018-06-28T11:19:30.801Z,15.30
2018-06-28T11:21:58.768Z,13.90
2018-06-28T11:24:27.487Z,14.65
2018-06-28T11:26:55.593Z,15.28
2018-06-28T11:29:24.176Z,14.95
2018-06-28T11:31:52.837Z,14.40
2018-06-28T11:34:21.908Z,14.35
2018-06-28T11:36:50.442Z,16.73
2018-06-28T11:39:18.447Z,17.20
2018-06-28T11:41:46.715Z,19.12
2018-06-28T11:44:14.820Z,16.48
2018-06-28T11:46:43.403Z,16.57
2018-06-28T11:49:11.408Z,16.00
2018-06-28T11:51:39.958Z,13.18
2018-06-28T11:54:08.180Z,14.60
2018-06-28T11:56:36.352Z,15.90
2018-06-28T11:59:04.319Z,14.43
2018-06-28T12:01:32.678Z,16.35
2018-06-28T12:04:00.831Z,15.88
2018-06-28T12:06:28.846Z,16.12
2018-06-28T12:08:57.091Z,16.80
2018-06-28T12:11:26.328Z,16.17
2018-06-28T12:13:54.551Z,14.20
2018-06-28T12:16:23.240Z,16.52
2018-06-28T12:18:51.884Z,15.55
2018-06-28T12:21:20.036Z,16.32
2018-06-28T12:23:48.228Z,14.58
2018-06-28T12:26:17.217Z,16.48
2018-06-28T12:28:45.195Z,15.72
2018-06-28T12:31:13.147Z,12.95
2018-06-28T12:33:41.384Z,15.68
2018-06-28T12:36:11.908Z,21.45
2018-06-28T12:38:40.063Z,17.75
2018-06-28T12:41:08.500Z,16.62
2018-06-28T12:43:37.147Z,15.20
2018-06-28T12:46:05.284Z,15.53
2018-06-28T12:48:33.561Z,17.20
2018-06-28T12:51:01.583Z,15.08
2018-06-28T12:53:29.579Z,17.45
2018-06-28T12:56:31.610Z,13.25
2018-06-28T12:59:01.048Z,14.75
2018-06-28T13:01:29.560Z,14.70
2018-06-28T13:03:59.203Z,12.90
2018-06-28T13:06:27.334Z,11.73
2018-06-28T13:08:55.917Z,12.43
2018-06-28T13:11:24.659Z,12.43
2018-06-28T13:13:53.305Z,11.10
2018-06-28T13:16:22.306Z,12.40
2018-06-28T13:18:50.318Z,16.55
2018-06-28T13:21:18.259Z,14.35
2018-06-28T13:23:46.345Z,12.43
2018-06-28T13:26:15.471Z,11.50
2018-06-28T13:28:44.723Z,10.13
2018-06-28T13:31:12.919Z,9.93
2018-06-28T13:33:40.971Z,10.65
2018-06-28T13:36:09.079Z,10.08
2018-06-28T13:38:37.952Z,11.80
2018-06-28T13:41:06.277Z,11.05
2018-06-28T13:43:34.130Z,10.53
2018-06-28T13:46:02.316Z,12.28
2018-06-28T13:48:30.568Z,10.65
2018-06-28T13:50:58.540Z,10.25
2018-06-28T13:53:26.522Z,10.30
2018-06-28T13:55:56.562Z,10.60
2018-06-28T13:58:24.670Z,8.45
2018-06-28T14:00:52.749Z,6.92
2018-06-28T14:03:20.969Z,5.37
2018-06-28T14:05:49.011Z,6.90
2018-06-28T14:08:16.959Z,7.28
2018-06-28T14:10:45.899Z,7.12
2018-06-28T14:13:13.928Z,8.93
2018-06-28T14:15:42.502Z,9.08
2018-06-28T14:18:11.055Z,9.65
2018-06-28T14:20:39.087Z,9.95
2018-06-28T14:23:07.604Z,12.15
2018-06-28T14:25:37.774Z,12.70
2018-06-28T14:28:05.772Z,11.28
2018-06-28T14:30:33.833Z,14.50
2018-06-28T14:33:02.238Z,14.13
2018-06-28T14:35:30.708Z,14.55
2018-06-28T14:37:58.705Z,17.37
2018-06-28T14:40:27.077Z,16.12
2018-06-28T14:42:55.050Z,15.40
2018-06-28T14:45:23.023Z,13.78
2018-06-28T14:47:51.356Z,12.82
2018-06-28T14:50:19.385Z,11.88
2018-06-28T14:52:47.380Z,12.20
2018-06-28T14:55:15.429Z,9.30
2018-06-28T14:57:43.480Z,4.65
2018-06-28T15:00:17.060Z,5.33
2018-06-28T15:02:45.119Z,4.30
2018-06-28T15:05:13.712Z,4.20
2018-06-28T15:07:41.922Z,4.25
2018-06-28T15:10:09.902Z,5.20
2018-06-28T15:12:37.880Z,13.58
2018-06-28T15:15:06.581Z,8.45
2018-06-28T15:17:34.588Z,6.47
2018-06-28T15:20:02.634Z,6.10
2018-06-28T15:22:30.631Z,5.35
2018-06-28T15:24:58.668Z,5.60
2018-06-28T15:27:26.647Z,6.62
2018-06-28T15:29:54.873Z,6.72
2018-06-28T15:32:22.909Z,5.08
2018-06-28T15:34:50.900Z,7.10
2018-06-28T15:37:18.878Z,10.63
2018-06-28T15:39:46.755Z,9.90
2018-06-28T15:42:17.350Z,9.45
2018-06-28T15:44:45.863Z,9.33
2018-06-28T15:47:13.839Z,9.00
2018-06-28T15:49:42.118Z,10.72
2018-06-28T15:52:10.136Z,8.95
2018-06-28T15:54:38.231Z,8.15
2018-06-28T15:57:06.151Z,7.60
2018-06-28T15:59:34.217Z,8.05
2018-06-28T16:02:02.483Z,7.28
2018-06-28T16:04:30.462Z,9.78
2018-06-28T16:06:59.316Z,7.95
2018-06-28T16:09:27.619Z,7.30
2018-06-28T16:11:55.742Z,6.65
2018-06-28T16:14:23.787Z,6.28
2018-06-28T16:16:51.758Z,9.73
2018-06-28T16:19:20.624Z,10.78
2018-06-28T16:21:48.636Z,10.58
2018-06-28T16:24:17.243Z,8.65
2018-06-28T16:26:45.310Z,12.15
2018-06-28T16:29:13.333Z,9.30
2018-06-28T16:31:41.319Z,9.53
2018-06-28T16:34:09.379Z,8.43
2018-06-28T16:36:37.420Z,8.40
2018-06-28T16:39:09.399Z,10.82
2018-06-28T16:41:37.457Z,8.98
2018-06-28T16:44:05.898Z,8.28
2018-06-28T16:46:34.001Z,10.98
2018-06-28T16:49:02.076Z,14.50
2018-06-28T16:51:30.008Z,10.10
2018-06-28T16:53:58.080Z,14.83
2018-06-28T16:56:26.052Z,9.35
2018-06-28T16:58:54.152Z,8.98
2018-06-28T17:01:22.193Z,8.68
2018-06-28T17:03:50.252Z,6.92
2018-06-28T17:06:18.203Z,7.62
2018-06-28T17:08:46.463Z,6.78
2018-06-28T17:11:14.473Z,7.92
2018-06-28T17:13:42.493Z,10.90
2018-06-28T17:16:10.895Z,10.25
2018-06-28T17:18:39.248Z,8.70
2018-06-28T17:21:07.428Z,9.58
2018-06-28T17:23:35.830Z,8.38
2018-06-28T17:26:04.162Z,10.43
2018-06-28T17:28:32.320Z,10.10
2018-06-28T17:31:01.446Z,12.33
2018-06-28T17:33:29.453Z,15.90
2018-06-28T17:35:57.605Z,13.83
2018-06-28T17:38:25.683Z,18.23
2018-06-28T17:40:53.907Z,18.23
2018-06-28T17:43:22.268Z,16.97
2018-06-28T17:45:50.553Z,14.87
2018-06-28T17:48:18.873Z,14.30
2018-06-28T17:50:47.209Z,13.93
2018-06-28T17:53:15.375Z,14.38
2018-06-28T17:55:44.088Z,11.43
2018-06-28T17:58:12.627Z,10.10
2018-06-28T18:00:40.877Z,9.63
2018-06-28T18:03:09.484Z,11.18
2018-06-28T18:05:37.603Z,10.00
2018-06-28T18:08:05.892Z,9.15
2018-06-28T18:10:33.935Z,10.95
2018-06-28T18:13:02.107Z,13.50
2018-06-28T18:15:30.077Z,9.78
2018-06-28T18:17:58.103Z,12.90
2018-06-28T18:20:26.152Z,7.45
2018-06-28T18:22:54.126Z,9.45
2018-06-28T18:25:23.360Z,6.72
2018-06-28T18:27:52.371Z,8.33
2018-06-28T18:30:20.615Z,10.15
2018-06-28T18:32:48.752Z,10.30
2018-06-28T18:35:16.928Z,7.58
2018-06-28T18:37:45.966Z,10.58
2018-06-28T18:40:14.016Z,8.70
2018-06-28T18:42:42.081Z,7.95
2018-06-28T18:45:10.808Z,12.78
2018-06-28T18:47:38.850Z,18.50
2018-06-28T18:50:06.836Z,18.45
2018-06-28T18:52:34.867Z,9.78
2018-06-28T18:55:04.845Z,8.88
2018-06-28T18:57:34.600Z,9.45
2018-06-28T19:00:03.271Z,11.03
2018-06-28T19:02:32.198Z,14.18
2018-06-28T19:05:00.271Z,23.77
2018-06-28T19:07:28.317Z,28.62
2018-06-28T19:10:01.903Z,14.33
2018-06-28T19:12:29.798Z,14.38
2018-06-28T19:15:03.386Z,9.28
2018-06-28T19:17:32.337Z,10.93
2018-06-28T19:20:00.945Z,7.97
2018-06-28T19:22:34.454Z,11.18
2018-06-28T19:25:02.821Z,11.38
2018-06-28T19:27:30.784Z,10.10
2018-06-28T19:30:05.092Z,10.55
2018-06-28T19:32:34.957Z,9.38
2018-06-28T19:35:03.340Z,12.70
2018-06-28T19:37:36.664Z,26.10
2018-06-28T19:40:11.985Z,43.08
2018-06-28T19:42:46.057Z,15.25
2018-06-28T19:45:14.247Z,13.72
2018-06-28T19:47:42.827Z,14.30
2018-06-28T19:50:16.458Z,13.20
2018-06-28T19:52:49.843Z,8.08
2018-06-28T19:55:18.419Z,9.70
2018-06-28T19:57:46.425Z,9.88
2018-06-28T20:00:19.806Z,7.83
2018-06-28T20:02:53.252Z,9.68
2018-06-28T20:05:21.721Z,7.92
2018-06-28T20:07:50.054Z,13.58
2018-06-28T20:10:19.208Z,11.35
2018-06-28T20:12:53.353Z,13.53
2018-06-28T20:16:05.151Z,10.93
2018-06-28T20:18:39.473Z,10.38
2018-06-28T20:21:07.633Z,7.45
2018-06-28T20:23:36.133Z,7.95
2018-06-28T20:26:09.468Z,7.62
2018-06-28T20:28:43.499Z,8.98
2018-06-28T20:31:16.875Z,10.90
2018-06-28T20:33:50.334Z,19.73
2018-06-28T20:36:18.295Z,17.05
2018-06-28T20:38:46.218Z,5.30
2018-06-28T20:41:14.162Z,9.50
2018-06-28T20:43:42.092Z,10.93
2018-06-28T20:46:10.332Z,10.70
2018-06-28T20:48:38.251Z,5.05
2018-06-28T20:51:06.907Z,5.28
2018-06-28T20:53:34.888Z,4.90
2018-06-28T20:56:02.868Z,7.75
2018-06-28T20:58:30.809Z,8.73
2018-06-28T21:00:58.811Z,6.83
2018-06-28T21:03:27.202Z,7.50
2018-06-28T21:05:55.070Z,10.10
2018-06-28T21:08:22.978Z,6.42
2018-06-28T21:10:51.404Z,9.00
2018-06-28T21:13:19.331Z,8.43
2018-06-28T21:15:47.684Z,9.50
2018-06-28T21:18:15.585Z,7.67
2018-06-28T21:20:43.503Z,7.53
2018-06-28T21:23:11.707Z,6.50
2018-06-28T21:25:39.702Z,7.00
2018-06-28T21:28:07.750Z,9.40
2018-06-28T21:30:35.726Z,7.70
2018-06-28T21:33:03.641Z,5.35
2018-06-28T21:35:31.513Z,6.67
2018-06-28T21:38:04.042Z,7.75
2018-06-28T21:40:31.977Z,8.13
2018-06-28T21:42:59.953Z,10.63
2018-06-28T21:45:27.971Z,8.33
2018-06-28T21:47:55.992Z,8.90
2018-06-28T21:50:24.030Z,6.78
2018-06-28T21:52:52.044Z,7.62
2018-06-28T21:55:19.980Z,6.85
2018-06-28T21:57:47.955Z,9.23
2018-06-28T22:00:33.164Z,8.88
2018-06-28T22:03:03.210Z,10.75
2018-06-28T22:05:32.265Z,7.92
2018-06-28T22:08:00.593Z,7.20
2018-06-28T22:10:28.492Z,8.20
2018-06-28T22:12:56.703Z,7.65
2018-06-28T22:15:26.080Z,8.10
2018-06-28T22:17:57.148Z,8.10
2018-06-28T22:20:26.253Z,8.85
2018-06-28T22:22:54.453Z,11.12
2018-06-28T22:25:22.805Z,10.23
2018-06-28T22:27:50.718Z,8.75
2018-06-28T22:30:19.285Z,8.03
2018-06-28T22:32:47.153Z,9.00
2018-06-28T22:35:15.286Z,7.90
2018-06-28T22:37:43.453Z,10.53
2018-06-28T22:40:11.447Z,9.15
2018-06-28T22:42:39.646Z,8.95
2018-06-28T22:45:08.398Z,8.95
2018-06-28T22:47:36.379Z,10.95
2018-06-28T22:50:04.644Z,9.23
2018-06-28T22:52:33.640Z,10.75
2018-06-28T22:55:01.894Z,8.18
2018-06-28T22:57:29.922Z,7.90
2018-06-28T22:59:58.184Z,10.45
2018-06-28T23:02:26.080Z,8.35
2018-06-28T23:04:54.372Z,10.13
2018-06-28T23:07:22.542Z,9.55
2018-06-28T23:09:50.421Z,9.23
2018-06-28T23:12:18.432Z,9.90
2018-06-28T23:14:46.435Z,7.58
2018-06-28T23:17:14.334Z,8.55
2018-06-28T23:19:42.592Z,11.60
2018-06-28T23:22:46.694Z,7.50
2018-06-28T23:25:15.302Z,11.15
2018-06-28T23:27:43.985Z,8.35
2018-06-28T23:30:12.203Z,14.33
2018-06-28T23:32:40.735Z,9.43
2018-06-28T23:35:08.942Z,7.50
2018-06-28T23:37:37.530Z,10.85
2018-06-28T23:40:05.613Z,10.55
2018-06-28T23:42:34.034Z,8.73
2018-06-28T23:45:02.108Z,9.88
2018-06-28T23:47:30.054Z,8.88
2018-06-28T23:49:58.082Z,10.85
2018-06-28T23:52:25.989Z,9.28
2018-06-28T23:54:54.346Z,10.80
2018-06-28T23:57:22.243Z,10.93
2018-06-28T23:59:50.154Z,12.73
